createdAt,value
2022-09-17T00:01:29.218Z,9.80
2022-09-17T00:04:00.216Z,9.70
2022-09-17T00:06:29.041Z,9.80
2022-09-17T00:08:57.064Z,9.80
2022-09-17T00:11:28.785Z,9.80
2022-09-17T00:13:57.312Z,9.80
2022-09-17T00:16:28.983Z,9.80
2022-09-17T00:18:57.670Z,9.80
2022-09-17T00:21:26.657Z,9.80
2022-09-17T00:23:56.750Z,9.70
2022-09-17T00:26:25.403Z,9.70
2022-09-17T00:28:55.841Z,9.70
2022-09-17T00:31:24.986Z,9.90
2022-09-17T00:33:53.770Z,9.80
2022-09-17T00:36:22.985Z,9.90
2022-09-17T00:38:51.744Z,9.80
2022-09-17T00:41:20.558Z,9.90
2022-09-17T00:43:50.896Z,9.90
2022-09-17T00:46:34.024Z,9.80
2022-09-17T00:49:05.554Z,9.80
2022-09-17T00:51:38.140Z,9.70
2022-09-17T00:54:09.205Z,9.80
2022-09-17T00:56:39.387Z,9.80
2022-09-17T00:59:08.992Z,9.90
2022-09-17T01:01:38.929Z,9.90
2022-09-17T01:04:07.406Z,9.80
2022-09-17T01:06:41.726Z,9.80
2022-09-17T01:09:25.971Z,9.80
2022-09-17T01:12:11.566Z,9.80
2022-09-17T01:15:01.460Z,9.80
2022-09-17T01:17:36.815Z,9.80
2022-09-17T01:20:41.340Z,9.70
2022-09-17T01:23:33.039Z,9.70
2022-09-17T01:26:19.790Z,9.80
2022-09-17T01:28:58.061Z,9.80
2022-09-17T01:31:36.097Z,9.80
2022-09-17T01:34:15.724Z,9.70
2022-09-17T01:36:51.147Z,9.70
2022-09-17T01:39:31.022Z,9.70
2022-09-17T01:42:06.418Z,9.70
2022-09-17T01:44:40.798Z,9.70
2022-09-17T01:47:20.299Z,9.70
2022-09-17T01:49:52.504Z,9.70
2022-09-17T01:52:21.662Z,9.70
2022-09-17T01:54:55.297Z,9.60
2022-09-17T01:57:28.886Z,9.60
2022-09-17T02:00:02.298Z,9.60
2022-09-17T02:02:46.347Z,9.60
2022-09-17T02:05:20.340Z,9.60
2022-09-17T02:07:54.394Z,9.70
2022-09-17T02:10:26.725Z,9.70
2022-09-17T02:12:59.834Z,9.60
2022-09-17T02:15:32.233Z,9.70
2022-09-17T02:18:08.094Z,9.60
2022-09-17T02:20:42.094Z,9.60
2022-09-17T02:23:15.469Z,9.70
2022-09-17T02:25:50.193Z,9.60
2022-09-17T02:28:23.354Z,9.70
2022-09-17T02:30:51.546Z,9.70
2022-09-17T02:33:22.850Z,9.70
2022-09-17T02:35:51.018Z,9.70
2022-09-17T02:38:23.792Z,9.70
2022-09-17T02:41:00.622Z,9.70
2022-09-17T02:43:38.052Z,9.60
2022-09-17T02:46:20.924Z,9.60
2022-09-17T02:49:09.313Z,9.70
2022-09-17T02:51:46.006Z,9.70
2022-09-17T02:54:25.666Z,9.70
2022-09-17T02:57:03.707Z,9.70
2022-09-17T02:59:37.735Z,9.70
2022-09-17T03:02:13.131Z,9.70
2022-09-17T03:04:43.235Z,9.70
2022-09-17T03:07:12.851Z,9.70
2022-09-17T03:09:43.569Z,9.70
2022-09-17T03:12:12.278Z,9.90
2022-09-17T03:14:40.528Z,9.60
2022-09-17T03:17:08.564Z,9.70
2022-09-17T03:19:36.558Z,9.80
2022-09-17T03:22:05.961Z,9.70
2022-09-17T03:24:34.046Z,9.70
2022-09-17T03:27:02.064Z,9.70
2022-09-17T03:29:30.102Z,9.70
2022-09-17T03:31:58.233Z,9.70
2022-09-17T03:34:26.259Z,9.80
2022-09-17T03:36:54.305Z,9.70
2022-09-17T03:39:23.801Z,9.70
2022-09-17T03:41:52.107Z,9.60
2022-09-17T03:44:21.149Z,9.60
2022-09-17T03:46:49.278Z,9.70
2022-09-17T03:49:17.413Z,9.60
2022-09-17T03:51:45.569Z,9.50
2022-09-17T03:54:13.692Z,9.60
2022-09-17T03:56:43.063Z,9.60
2022-09-17T03:59:12.086Z,9.60
2022-09-17T04:01:40.629Z,9.60
2022-09-17T04:04:08.978Z,9.60
2022-09-17T04:06:36.985Z,9.60
2022-09-17T04:09:05.505Z,9.60
2022-09-17T04:11:33.834Z,9.60
2022-09-17T04:14:28.257Z,9.60
2022-09-17T04:16:56.382Z,9.60
2022-09-17T04:19:24.666Z,9.60
2022-09-17T04:21:52.949Z,9.60
2022-09-17T04:24:21.234Z,9.60
2022-09-17T04:26:49.484Z,9.60
2022-09-17T04:29:17.613Z,9.60
2022-09-17T04:31:47.249Z,9.70
2022-09-17T04:34:15.279Z,9.60
2022-09-17T04:36:43.320Z,9.60
2022-09-17T04:39:11.486Z,9.60
2022-09-17T04:41:40.362Z,9.60
2022-09-17T04:44:08.414Z,9.60
2022-09-17T04:46:36.541Z,9.70
2022-09-17T04:49:05.914Z,9.70
2022-09-17T04:51:33.925Z,9.70
2022-09-17T04:54:02.239Z,9.70
2022-09-17T04:56:30.220Z,9.70
2022-09-17T04:58:58.343Z,9.70
2022-09-17T05:01:26.509Z,9.70
2022-09-17T05:03:54.568Z,9.70
2022-09-17T05:06:23.942Z,9.70
2022-09-17T05:08:52.036Z,9.60
2022-09-17T05:11:20.125Z,9.60
2022-09-17T05:13:48.158Z,9.80
2022-09-17T05:16:16.262Z,9.60
2022-09-17T05:18:44.299Z,9.60
2022-09-17T05:21:12.517Z,9.70
2022-09-17T05:23:41.923Z,9.70
2022-09-17T05:26:10.034Z,9.70
2022-09-17T05:28:38.034Z,9.70
2022-09-17T05:31:06.298Z,9.90
2022-09-17T05:33:34.621Z,9.70
2022-09-17T05:36:03.106Z,9.70
2022-09-17T05:38:31.129Z,9.70
2022-09-17T05:41:04.257Z,9.70
2022-09-17T05:43:32.242Z,9.70
2022-09-17T05:46:03.246Z,9.70
2022-09-17T05:48:31.401Z,9.70
2022-09-17T05:50:59.494Z,9.70
2022-09-17T05:53:27.638Z,9.70
2022-09-17T05:55:58.326Z,9.80
2022-09-17T05:58:29.051Z,9.80
2022-09-17T06:00:57.099Z,9.80
2022-09-17T06:03:25.299Z,9.90
2022-09-17T06:05:56.075Z,9.90
2022-09-17T06:08:24.218Z,9.90
2022-09-17T06:10:52.282Z,10.00
2022-09-17T06:13:21.225Z,10.00
2022-09-17T06:15:53.397Z,10.20
2022-09-17T06:18:22.194Z,10.20
2022-09-17T06:21:00.728Z,10.20
2022-09-17T06:23:33.123Z,10.10
2022-09-17T06:26:02.374Z,10.10
2022-09-17T06:28:30.699Z,10.10
2022-09-17T06:31:03.092Z,10.10
2022-09-17T06:33:32.023Z,10.20
2022-09-17T06:36:00.960Z,10.20
2022-09-17T06:38:29.562Z,10.20
2022-09-17T06:40:57.817Z,10.30
2022-09-17T06:43:26.514Z,10.40
2022-09-17T06:45:54.652Z,10.50
2022-09-17T06:48:24.919Z,10.70
2022-09-17T06:50:54.271Z,10.80
2022-09-17T06:53:22.639Z,10.80
2022-09-17T06:55:51.348Z,10.90
2022-09-17T06:58:19.368Z,11.00
2022-09-17T07:00:47.719Z,11.00
2022-09-17T07:03:18.061Z,11.10
2022-09-17T07:05:51.875Z,11.20
2022-09-17T07:08:19.847Z,11.40
2022-09-17T07:10:50.110Z,11.50
2022-09-17T07:13:18.137Z,11.50
2022-09-17T07:15:54.323Z,11.50
2022-09-17T07:18:23.264Z,11.60
2022-09-17T07:20:56.398Z,11.70
2022-09-17T07:23:25.458Z,12.10
2022-09-17T07:25:54.095Z,12.40
2022-09-17T07:28:22.692Z,12.50
2022-09-17T07:30:51.279Z,12.40
2022-09-17T07:33:23.178Z,12.50
2022-09-17T07:35:56.134Z,13.00
2022-09-17T07:38:24.228Z,13.40
2022-09-17T07:40:59.640Z,13.90
2022-09-17T07:43:28.909Z,14.50
2022-09-17T07:45:58.708Z,15.00
2022-09-17T07:48:28.107Z,15.30
2022-09-17T07:50:58.139Z,15.10
2022-09-17T07:53:26.991Z,14.80
2022-09-17T07:55:56.033Z,14.30
2022-09-17T07:58:24.750Z,14.20
2022-09-17T08:00:52.730Z,14.00
2022-09-17T08:03:20.797Z,13.80
2022-09-17T08:05:48.775Z,13.50
2022-09-17T08:08:21.233Z,13.20
2022-09-17T08:10:49.464Z,13.00
2022-09-17T08:13:17.459Z,13.00
2022-09-17T08:15:45.542Z,12.90
2022-09-17T08:18:16.581Z,12.80
2022-09-17T08:20:44.566Z,12.70
2022-09-17T08:23:12.538Z,12.40
2022-09-17T08:25:41.959Z,12.00
2022-09-17T08:28:09.951Z,11.80
2022-09-17T08:30:37.947Z,11.80
2022-09-17T08:33:06.005Z,11.80
2022-09-17T08:35:33.978Z,11.80
2022-09-17T08:38:02.162Z,11.90
2022-09-17T08:40:31.434Z,12.30
2022-09-17T08:43:02.806Z,12.80
2022-09-17T08:45:31.097Z,13.10
2022-09-17T08:48:04.439Z,13.20
2022-09-17T08:50:34.904Z,13.80
2022-09-17T08:53:23.353Z,14.60
2022-09-17T08:55:58.582Z,15.10
2022-09-17T08:58:40.655Z,15.30
2022-09-17T09:01:30.482Z,15.20
2022-09-17T09:04:42.236Z,14.90
2022-09-17T09:07:13.656Z,14.40
2022-09-17T09:09:50.228Z,14.30
2022-09-17T09:12:24.283Z,14.30
2022-09-17T09:14:59.171Z,14.30
2022-09-17T09:17:35.052Z,14.30
2022-09-17T09:20:05.190Z,14.20
2022-09-17T09:22:48.825Z,14.00
2022-09-17T09:25:23.466Z,13.90
2022-09-17T09:28:06.077Z,13.90
2022-09-17T09:30:48.846Z,13.90
2022-09-17T09:33:19.983Z,13.80
2022-09-17T09:35:48.020Z,13.60
2022-09-17T09:38:23.667Z,13.60
2022-09-17T09:40:56.268Z,13.60
2022-09-17T09:43:59.925Z,14.00
2022-09-17T09:46:42.907Z,14.10
2022-09-17T09:49:23.533Z,14.00
2022-09-17T09:52:04.036Z,14.30
2022-09-17T09:54:45.382Z,14.70
2022-09-17T09:57:15.979Z,15.00
2022-09-17T09:59:44.085Z,15.60
2022-09-17T10:02:13.746Z,15.60
2022-09-17T10:04:41.829Z,15.60
2022-09-17T10:07:12.094Z,15.80
2022-09-17T10:09:46.177Z,15.80
2022-09-17T10:12:18.728Z,15.70
2022-09-17T10:14:48.145Z,16.00
2022-09-17T10:17:21.357Z,16.10
2022-09-17T10:20:14.084Z,16.20
2022-09-17T10:22:44.078Z,15.80
2022-09-17T10:25:33.908Z,15.90
2022-09-17T10:28:04.542Z,16.20
2022-09-17T10:30:32.911Z,16.20
2022-09-17T10:33:19.431Z,16.20
2022-09-17T10:36:06.246Z,16.00
2022-09-17T10:38:37.003Z,16.30
2022-09-17T10:41:21.673Z,16.70
2022-09-17T10:43:50.097Z,17.10
2022-09-17T10:46:27.251Z,17.20
2022-09-17T10:49:11.139Z,16.70
2022-09-17T10:51:40.276Z,16.40
2022-09-17T10:54:33.997Z,16.10
2022-09-17T10:57:04.501Z,15.90
2022-09-17T10:59:56.386Z,16.40
2022-09-17T11:02:46.725Z,16.80
2022-09-17T11:05:33.388Z,16.80
2022-09-17T11:08:05.008Z,16.60
2022-09-17T11:10:43.346Z,16.20
2022-09-17T11:13:21.021Z,16.20
2022-09-17T11:15:59.985Z,15.90
2022-09-17T11:18:40.508Z,15.70
2022-09-17T11:21:41.254Z,15.70
2022-09-17T11:24:48.601Z,15.70
2022-09-17T11:27:35.358Z,15.90
2022-09-17T11:30:15.273Z,16.10
2022-09-17T11:33:09.692Z,16.80
2022-09-17T11:35:41.932Z,17.30
2022-09-17T11:38:16.725Z,17.50
2022-09-17T11:40:51.386Z,17.50
2022-09-17T11:43:27.402Z,17.40
2022-09-17T11:46:02.526Z,16.90
2022-09-17T11:48:40.445Z,16.50
2022-09-17T11:51:20.897Z,16.50
2022-09-17T11:53:53.569Z,16.50
2022-09-17T11:56:27.387Z,16.20
2022-09-17T11:59:02.306Z,16.70
2022-09-17T12:01:37.618Z,17.60
2022-09-17T12:04:20.894Z,18.90
2022-09-17T12:06:55.539Z,20.50
2022-09-17T12:09:27.916Z,20.70
2022-09-17T12:12:02.917Z,20.80
2022-09-17T12:14:41.012Z,19.90
2022-09-17T12:17:16.237Z,18.80
2022-09-17T12:19:48.001Z,18.10
2022-09-17T12:22:21.644Z,17.30
2022-09-17T12:24:51.532Z,16.40
2022-09-17T12:27:34.958Z,15.90
2022-09-17T12:30:10.896Z,15.60
2022-09-17T12:33:08.157Z,15.20
2022-09-17T12:36:04.102Z,14.80
2022-09-17T12:39:02.213Z,14.60
2022-09-17T12:41:39.832Z,14.40
2022-09-17T12:44:25.502Z,14.40
2022-09-17T12:47:06.537Z,14.60
2022-09-17T12:49:59.346Z,14.60
2022-09-17T12:52:39.916Z,14.80
2022-09-17T12:55:45.010Z,14.80
2022-09-17T12:58:28.076Z,14.40
2022-09-17T13:01:03.389Z,14.10
2022-09-17T13:03:36.545Z,13.90
2022-09-17T13:06:24.329Z,13.80
2022-09-17T13:09:27.790Z,13.60
2022-09-17T13:12:21.250Z,13.60
2022-09-17T13:15:24.902Z,13.30
2022-09-17T13:18:22.985Z,13.20
2022-09-17T13:21:02.290Z,12.90
2022-09-17T13:23:38.060Z,12.80
2022-09-17T13:26:07.375Z,12.80
2022-09-17T13:28:47.493Z,12.70
2022-09-17T13:31:22.069Z,12.60
2022-09-17T13:33:58.009Z,12.60
2022-09-17T13:36:53.846Z,12.50
2022-09-17T13:39:44.405Z,12.40
2022-09-17T13:42:18.317Z,12.30
2022-09-17T13:44:51.102Z,12.20
2022-09-17T13:47:23.348Z,12.30
2022-09-17T13:49:56.550Z,12.50
2022-09-17T13:52:46.131Z,13.10
2022-09-17T13:55:34.135Z,13.30
2022-09-17T13:58:07.551Z,13.50
2022-09-17T14:00:56.756Z,13.90
2022-09-17T14:03:50.785Z,13.90
2022-09-17T14:06:53.619Z,13.90
2022-09-17T14:09:50.813Z,13.90
2022-09-17T14:12:56.121Z,13.80
2022-09-17T14:15:54.918Z,13.70
2022-09-17T14:18:38.705Z,13.70
2022-09-17T14:21:14.518Z,13.60
2022-09-17T14:23:53.305Z,13.60
2022-09-17T14:26:36.706Z,13.60
2022-09-17T14:29:12.273Z,13.60
2022-09-17T14:31:40.415Z,13.50
2022-09-17T14:34:16.791Z,13.50
2022-09-17T14:36:44.837Z,13.40
2022-09-17T14:39:21.427Z,13.50
2022-09-17T14:41:51.394Z,13.50
2022-09-17T14:44:21.177Z,13.40
2022-09-17T14:46:56.145Z,13.50
2022-09-17T14:49:25.841Z,13.40
2022-09-17T14:51:54.897Z,13.50
2022-09-17T14:54:26.172Z,13.60
2022-09-17T14:56:57.442Z,13.70
2022-09-17T14:59:37.693Z,13.70
2022-09-17T15:02:20.355Z,13.70
2022-09-17T15:04:48.384Z,13.60
2022-09-17T15:07:16.433Z,13.60
2022-09-17T15:09:46.030Z,13.60
2022-09-17T15:12:18.645Z,13.60
2022-09-17T15:14:47.999Z,13.70
2022-09-17T15:17:18.978Z,13.70
2022-09-17T15:19:51.400Z,13.50
2022-09-17T15:22:24.425Z,13.40
2022-09-17T15:24:56.994Z,13.10
2022-09-17T15:27:28.474Z,12.70
2022-09-17T15:30:02.376Z,12.10
2022-09-17T15:32:30.809Z,11.80
2022-09-17T15:35:20.128Z,11.60
2022-09-17T15:38:18.405Z,11.70
2022-09-17T15:40:40.935Z,11.60
2022-09-17T15:43:26.624Z,11.70
2022-09-17T15:45:54.804Z,11.60
2022-09-17T15:48:35.474Z,11.70
2022-09-17T15:51:06.859Z,11.90
2022-09-17T15:53:36.493Z,12.00
2022-09-17T15:56:08.736Z,12.30
2022-09-17T15:58:57.963Z,12.30
2022-09-17T16:01:56.178Z,12.50
2022-09-17T16:04:27.108Z,12.40
2022-09-17T16:07:00.542Z,12.30
2022-09-17T16:09:43.545Z,12.20
2022-09-17T16:12:16.491Z,12.00
2022-09-17T16:14:46.051Z,11.90
2022-09-17T16:17:42.823Z,11.80
2022-09-17T16:20:16.752Z,11.80
2022-09-17T16:22:47.051Z,11.80
2022-09-17T16:25:15.806Z,11.80
2022-09-17T16:27:49.806Z,11.60
2022-09-17T16:30:20.226Z,11.60
2022-09-17T16:32:48.947Z,11.50
2022-09-17T16:35:19.575Z,11.40
2022-09-17T16:37:50.278Z,11.40
2022-09-17T16:40:18.811Z,11.30
2022-09-17T16:42:48.650Z,11.30
2022-09-17T16:45:17.151Z,11.20
2022-09-17T16:47:45.788Z,11.00
2022-09-17T16:50:16.025Z,11.00
2022-09-17T16:52:44.661Z,10.90
2022-09-17T16:55:14.590Z,10.90
2022-09-17T16:57:42.886Z,10.80
2022-09-17T17:00:16.387Z,10.80
2022-09-17T17:02:45.080Z,10.80
2022-09-17T17:05:13.758Z,10.80
2022-09-17T17:07:42.074Z,10.80
2022-09-17T17:10:11.000Z,10.90
2022-09-17T17:12:39.461Z,10.60
2022-09-17T17:15:09.191Z,10.60
2022-09-17T17:17:38.572Z,10.60
2022-09-17T17:20:09.523Z,10.60
2022-09-17T17:22:37.993Z,10.60
2022-09-17T17:25:07.165Z,10.50
2022-09-17T17:27:35.429Z,10.50
2022-09-17T17:30:06.647Z,10.40
2022-09-17T17:32:35.298Z,10.40
2022-09-17T17:35:05.647Z,10.30
2022-09-17T17:37:33.693Z,10.30
2022-09-17T17:40:05.227Z,10.20
2022-09-17T17:42:37.980Z,10.20
2022-09-17T17:45:07.738Z,10.20
2022-09-17T17:47:36.226Z,10.10
2022-09-17T17:50:07.008Z,10.10
2022-09-17T17:52:36.414Z,10.10
2022-09-17T17:55:04.867Z,10.10
2022-09-17T17:57:32.972Z,10.10
2022-09-17T18:00:00.972Z,10.00
2022-09-17T18:02:29.005Z,10.00
2022-09-17T18:05:00.773Z,10.00
2022-09-17T18:07:33.566Z,10.10
2022-09-17T18:10:01.813Z,10.00
2022-09-17T18:12:29.862Z,10.00
2022-09-17T18:14:58.290Z,9.90
2022-09-17T18:17:26.324Z,9.90
2022-09-17T18:19:56.282Z,9.80
2022-09-17T18:22:24.654Z,9.80
2022-09-17T18:24:54.085Z,9.70
2022-09-17T18:27:22.070Z,9.70
2022-09-17T18:29:50.080Z,9.60
2022-09-17T18:32:18.066Z,9.60
2022-09-17T18:34:46.576Z,9.60
2022-09-17T18:37:14.580Z,9.60
2022-09-17T18:39:57.903Z,9.70
2022-09-17T18:42:28.354Z,9.60
2022-09-17T18:44:56.376Z,9.60
2022-09-17T18:47:24.546Z,9.50
2022-09-17T18:49:52.573Z,9.50
2022-09-17T18:52:20.642Z,9.30
2022-09-17T18:54:48.633Z,9.20
2022-09-17T18:57:16.670Z,9.20
2022-09-17T18:59:46.233Z,9.10
2022-09-17T19:02:14.634Z,9.10
2022-09-17T19:04:42.653Z,9.10
2022-09-17T19:07:10.662Z,9.10
2022-09-17T19:09:38.636Z,9.10
2022-09-17T19:12:06.893Z,9.20
2022-09-17T19:14:34.938Z,9.10
2022-09-17T19:17:04.372Z,9.10
2022-09-17T19:19:32.457Z,9.00
2022-09-17T19:22:00.468Z,9.00
2022-09-17T19:24:28.449Z,8.90
2022-09-17T19:26:56.434Z,8.90
2022-09-17T19:29:24.472Z,8.90
2022-09-17T19:31:52.454Z,8.90
2022-09-17T19:34:21.897Z,8.90
2022-09-17T19:36:49.881Z,9.00
2022-09-17T19:39:18.549Z,9.00
2022-09-17T19:41:47.826Z,9.00
2022-09-17T19:44:16.034Z,9.10
2022-09-17T19:46:44.086Z,9.10
2022-09-17T19:49:13.719Z,9.10
2022-09-17T19:51:45.530Z,9.10
2022-09-17T19:54:13.618Z,9.10
2022-09-17T19:56:41.606Z,9.00
2022-09-17T19:59:09.729Z,9.00
2022-09-17T20:01:37.780Z,8.90
2022-09-17T20:04:06.938Z,8.80
2022-09-17T20:06:35.645Z,8.70
2022-09-17T20:09:05.086Z,8.70
2022-09-17T20:11:33.154Z,8.70
2022-09-17T20:14:06.311Z,8.70
2022-09-17T20:16:35.521Z,8.70
2022-09-17T20:19:04.379Z,8.60
2022-09-17T20:21:32.848Z,8.60
2022-09-17T20:24:00.900Z,8.70
2022-09-17T20:26:30.459Z,8.70
2022-09-17T20:28:58.483Z,8.70
2022-09-17T20:31:29.338Z,8.70
2022-09-17T20:33:59.038Z,8.80
2022-09-17T20:36:28.557Z,8.80
2022-09-17T20:39:16.772Z,8.90
2022-09-17T20:41:45.893Z,8.90
2022-09-17T20:44:13.921Z,8.90
2022-09-17T20:46:42.038Z,9.00
2022-09-17T20:49:10.233Z,9.00
2022-09-17T20:51:38.243Z,9.00
2022-09-17T20:54:07.477Z,9.00
2022-09-17T20:56:36.294Z,9.10
2022-09-17T20:59:14.178Z,9.10
2022-09-17T21:01:44.671Z,9.10
2022-09-17T21:04:15.066Z,9.10
2022-09-17T21:06:44.381Z,9.10
2022-09-17T21:09:16.559Z,9.10
2022-09-17T21:11:45.410Z,9.10
2022-09-17T21:14:17.095Z,9.20
2022-09-17T21:16:45.740Z,9.20
2022-09-17T21:19:15.754Z,9.20
2022-09-17T21:21:43.936Z,9.20
2022-09-17T21:24:12.280Z,9.20
2022-09-17T21:26:40.455Z,9.20
2022-09-17T21:29:08.536Z,9.20
2022-09-17T21:31:38.695Z,9.30
2022-09-17T21:34:08.862Z,9.30
2022-09-17T21:36:39.211Z,9.20
2022-09-17T21:39:08.864Z,9.20
2022-09-17T21:41:42.096Z,9.20
2022-09-17T21:44:11.181Z,9.20
2022-09-17T21:46:41.681Z,9.20
2022-09-17T21:49:10.422Z,9.30
2022-09-17T21:51:39.873Z,9.30
2022-09-17T21:54:09.645Z,9.30
2022-09-17T21:56:38.530Z,9.20
2022-09-17T21:59:08.650Z,9.20
2022-09-17T22:01:40.182Z,9.20
2022-09-17T22:04:12.538Z,9.30
2022-09-17T22:06:41.284Z,9.30
2022-09-17T22:09:14.613Z,9.30
2022-09-17T22:11:42.875Z,9.30
2022-09-17T22:14:13.082Z,9.20
2022-09-17T22:16:43.378Z,9.20
2022-09-17T22:19:14.675Z,9.20
2022-09-17T22:21:46.460Z,9.20
2022-09-17T22:24:15.884Z,9.20
2022-09-17T22:26:45.319Z,9.30
2022-09-17T22:29:15.938Z,9.30
2022-09-17T22:31:44.214Z,9.30
2022-09-17T22:34:17.766Z,9.30
2022-09-17T22:36:46.097Z,9.30
2022-09-17T22:39:14.146Z,9.30
2022-09-17T22:41:45.291Z,9.30
2022-09-17T22:44:15.614Z,9.30
2022-09-17T22:46:46.080Z,9.20
2022-09-17T22:49:16.242Z,9.20
2022-09-17T22:51:46.443Z,9.30
2022-09-17T22:54:16.154Z,9.30
2022-09-17T22:56:44.273Z,9.30
2022-09-17T22:59:12.681Z,9.30
2022-09-17T23:01:41.633Z,9.30
2022-09-17T23:04:09.894Z,9.40
2022-09-17T23:06:41.907Z,9.30
2022-09-17T23:09:10.178Z,9.40
2022-09-17T23:11:39.889Z,9.40
2022-09-17T23:14:09.828Z,9.40
2022-09-17T23:16:39.759Z,9.40
2022-09-17T23:19:07.889Z,9.40
2022-09-17T23:21:35.914Z,9.40
2022-09-17T23:24:05.561Z,9.40
2022-09-17T23:26:33.549Z,9.40
2022-09-17T23:29:05.172Z,9.50
2022-09-17T23:31:35.596Z,9.40
2022-09-17T23:34:05.136Z,9.40
2022-09-17T23:36:35.885Z,9.40
2022-09-17T23:39:07.236Z,9.30
2022-09-17T23:41:36.737Z,9.40
2022-09-17T23:44:12.144Z,9.40
2022-09-17T23:46:42.015Z,9.40
2022-09-17T23:49:12.019Z,9.40
2022-09-17T23:51:40.398Z,9.40
2022-09-17T23:54:09.897Z,9.40
2022-09-17T23:56:38.355Z,9.50
2022-09-17T23:59:07.261Z,9.50
